sensor_id;sensor_type;location;lat;lon;timestamp;P1;durP1;ratioP1;P2;durP2;ratioP2
80623;SDS011;70269;44.768;9.600;2024-03-23T00:55:40;8.23;;;3.17;;
80623;SDS011;70269;44.768;9.600;2024-03-23T00:58:08;7.65;;;3.45;;
80623;SDS011;70269;44.768;9.600;2024-03-23T01:00:34;9.32;;;2.90;;
80623;SDS011;70269;44.768;9.600;2024-03-23T01:03:00;5.00;;;2.40;;
80623;SDS011;70269;44.768;9.600;2024-03-23T01:05:25;8.77;;;3.35;;
80623;SDS011;70269;44.768;9.600;2024-03-23T01:07:51;6.63;;;2.83;;
80623;SDS011;70269;44.768;9.600;2024-03-23T01:10:16;6.75;;;3.03;;
80623;SDS011;70269;44.768;9.600;2024-03-23T01:12:42;5.65;;;2.72;;
80623;SDS011;70269;44.768;9.600;2024-03-23T01:15:08;6.05;;;3.08;;
80623;SDS011;70269;44.768;9.600;2024-03-23T01:17:34;5.95;;;2.72;;
80623;SDS011;70269;44.768;9.600;2024-03-23T01:19:59;7.57;;;2.95;;
80623;SDS011;70269;44.768;9.600;2024-03-23T01:22:25;7.05;;;3.20;;
80623;SDS011;70269;44.768;9.600;2024-03-23T01:24:50;7.22;;;2.63;;
80623;SDS011;70269;44.768;9.600;2024-03-23T01:27:16;6.03;;;2.70;;
80623;SDS011;70269;44.768;9.600;2024-03-23T01:29:42;7.05;;;3.17;;
80623;SDS011;70269;44.768;9.600;2024-03-23T01:32:07;5.60;;;2.60;;
80623;SDS011;70269;44.768;9.600;2024-03-23T01:34:33;5.45;;;3.00;;
80623;SDS011;70269;44.768;9.600;2024-03-23T01:36:58;7.53;;;2.60;;
80623;SDS011;70269;44.768;9.600;2024-03-23T01:39:24;5.30;;;2.70;;
80623;SDS011;70269;44.768;9.600;2024-03-23T01:41:50;7.35;;;3.13;;
80623;SDS011;70269;44.768;9.600;2024-03-23T01:44:16;6.70;;;3.22;;
80623;SDS011;70269;44.768;9.600;2024-03-23T01:46:42;6.95;;;2.88;;
80623;SDS011;70269;44.768;9.600;2024-03-23T01:49:09;7.55;;;3.35;;
80623;SDS011;70269;44.768;9.600;2024-03-23T01:51:35;8.23;;;2.95;;
80623;SDS011;70269;44.768;9.600;2024-03-23T01:54:02;7.63;;;2.88;;
80623;SDS011;70269;44.768;9.600;2024-03-23T01:56:35;6.28;;;3.03;;
80623;SDS011;70269;44.768;9.600;2024-03-23T01:59:01;6.40;;;2.88;;
80623;SDS011;70269;44.768;9.600;2024-03-23T02:01:30;7.13;;;2.72;;
80623;SDS011;70269;44.768;9.600;2024-03-23T02:03:57;7.10;;;2.50;;
80623;SDS011;70269;44.768;9.600;2024-03-23T02:06:24;8.43;;;3.70;;
80623;SDS011;70269;44.768;9.600;2024-03-23T02:08:50;6.93;;;2.63;;
80623;SDS011;70269;44.768;9.600;2024-03-23T02:11:16;4.82;;;2.33;;
80623;SDS011;70269;44.768;9.600;2024-03-23T02:13:41;7.20;;;2.80;;
80623;SDS011;70269;44.768;9.600;2024-03-23T02:16:07;4.60;;;1.92;;
80623;SDS011;70269;44.768;9.600;2024-03-23T02:18:33;6.13;;;2.80;;
80623;SDS011;70269;44.768;9.600;2024-03-23T02:20:59;4.40;;;2.03;;
80623;SDS011;70269;44.768;9.600;2024-03-23T02:23:25;7.10;;;2.13;;
80623;SDS011;70269;44.768;9.600;2024-03-23T02:25:50;4.18;;;1.73;;
80623;SDS011;70269;44.768;9.600;2024-03-23T02:28:16;6.03;;;2.17;;
80623;SDS011;70269;44.768;9.600;2024-03-23T02:30:45;5.53;;;2.22;;
80623;SDS011;70269;44.768;9.600;2024-03-23T02:33:10;4.97;;;2.20;;
80623;SDS011;70269;44.768;9.600;2024-03-23T02:35:36;4.22;;;1.98;;
80623;SDS011;70269;44.768;9.600;2024-03-23T02:38:02;5.82;;;1.75;;
80623;SDS011;70269;44.768;9.600;2024-03-23T02:40:28;7.85;;;2.83;;
80623;SDS011;70269;44.768;9.600;2024-03-23T02:42:53;3.85;;;2.00;;
80623;SDS011;70269;44.768;9.600;2024-03-23T02:45:19;4.60;;;1.70;;
80623;SDS011;70269;44.768;9.600;2024-03-23T02:47:45;5.78;;;2.60;;
80623;SDS011;70269;44.768;9.600;2024-03-23T02:50:10;5.03;;;2.20;;
80623;SDS011;70269;44.768;9.600;2024-03-23T02:52:36;5.32;;;2.33;;
80623;SDS011;70269;44.768;9.600;2024-03-23T02:55:02;6.47;;;2.17;;
80623;SDS011;70269;44.768;9.600;2024-03-23T02:57:28;8.32;;;2.55;;
80623;SDS011;70269;44.768;9.600;2024-03-23T02:59:54;4.93;;;1.77;;
80623;SDS011;70269;44.768;9.600;2024-03-23T03:02:20;4.63;;;2.88;;
80623;SDS011;70269;44.768;9.600;2024-03-23T03:04:46;6.80;;;2.17;;
80623;SDS011;70269;44.768;9.600;2024-03-23T03:07:13;4.60;;;1.75;;
80623;SDS011;70269;44.768;9.600;2024-03-23T03:09:39;3.72;;;1.60;;
80623;SDS011;70269;44.768;9.600;2024-03-23T03:12:07;4.45;;;1.88;;
80623;SDS011;70269;44.768;9.600;2024-03-23T03:14:33;4.40;;;1.67;;
80623;SDS011;70269;44.768;9.600;2024-03-23T03:16:59;5.07;;;2.00;;
80623;SDS011;70269;44.768;9.600;2024-03-23T03:19:25;3.47;;;1.52;;
80623;SDS011;70269;44.768;9.600;2024-03-23T03:21:51;5.80;;;2.40;;
80623;SDS011;70269;44.768;9.600;2024-03-23T03:24:17;5.45;;;1.90;;
80623;SDS011;70269;44.768;9.600;2024-03-23T03:26:43;4.78;;;1.30;;
80623;SDS011;70269;44.768;9.600;2024-03-23T03:29:08;4.25;;;1.63;;
80623;SDS011;70269;44.768;9.600;2024-03-23T03:31:34;5.07;;;1.80;;
80623;SDS011;70269;44.768;9.600;2024-03-23T03:34:00;2.95;;;1.20;;
80623;SDS011;70269;44.768;9.600;2024-03-23T03:36:25;2.25;;;1.17;;
80623;SDS011;70269;44.768;9.600;2024-03-23T03:38:51;4.38;;;1.60;;
80623;SDS011;70269;44.768;9.600;2024-03-23T03:41:18;2.28;;;1.00;;
80623;SDS011;70269;44.768;9.600;2024-03-23T03:43:43;5.30;;;1.30;;
80623;SDS011;70269;44.768;9.600;2024-03-23T03:46:09;6.18;;;1.77;;
80623;SDS011;70269;44.768;9.600;2024-03-23T03:48:36;5.10;;;1.83;;
80623;SDS011;70269;44.768;9.600;2024-03-23T03:51:02;5.10;;;1.65;;
80623;SDS011;70269;44.768;9.600;2024-03-23T03:53:28;4.43;;;1.45;;
80623;SDS011;70269;44.768;9.600;2024-03-23T03:55:53;2.85;;;1.30;;
80623;SDS011;70269;44.768;9.600;2024-03-23T03:58:19;3.08;;;1.13;;
80623;SDS011;70269;44.768;9.600;2024-03-23T04:00:45;5.90;;;1.58;;
80623;SDS011;70269;44.768;9.600;2024-03-23T04:03:10;5.00;;;1.40;;
80623;SDS011;70269;44.768;9.600;2024-03-23T04:05:36;3.08;;;1.02;;
80623;SDS011;70269;44.768;9.600;2024-03-23T04:08:03;3.55;;;1.23;;
80623;SDS011;70269;44.768;9.600;2024-03-23T04:10:29;2.75;;;0.93;;
80623;SDS011;70269;44.768;9.600;2024-03-23T04:12:55;1.88;;;0.85;;
80623;SDS011;70269;44.768;9.600;2024-03-23T04:15:21;4.45;;;1.45;;
80623;SDS011;70269;44.768;9.600;2024-03-23T04:17:46;2.47;;;1.08;;
80623;SDS011;70269;44.768;9.600;2024-03-23T04:20:12;2.45;;;1.20;;
80623;SDS011;70269;44.768;9.600;2024-03-23T04:22:42;2.50;;;1.40;;
80623;SDS011;70269;44.768;9.600;2024-03-23T04:25:08;2.42;;;1.30;;
80623;SDS011;70269;44.768;9.600;2024-03-23T04:27:38;2.22;;;1.02;;
80623;SDS011;70269;44.768;9.600;2024-03-23T04:30:05;3.35;;;1.25;;
80623;SDS011;70269;44.768;9.600;2024-03-23T04:32:36;2.65;;;1.20;;
80623;SDS011;70269;44.768;9.600;2024-03-23T04:35:02;3.33;;;1.07;;
80623;SDS011;70269;44.768;9.600;2024-03-23T04:40:00;5.20;;;1.30;;
80623;SDS011;70269;44.768;9.600;2024-03-23T04:42:27;2.33;;;1.10;;
80623;SDS011;70269;44.768;9.600;2024-03-23T04:44:53;3.47;;;1.42;;
80623;SDS011;70269;44.768;9.600;2024-03-23T04:47:19;2.40;;;1.00;;
80623;SDS011;70269;44.768;9.600;2024-03-23T04:49:44;4.38;;;1.50;;
80623;SDS011;70269;44.768;9.600;2024-03-23T04:52:10;3.42;;;1.30;;
80623;SDS011;70269;44.768;9.600;2024-03-23T04:54:36;3.33;;;1.30;;
80623;SDS011;70269;44.768;9.600;2024-03-23T04:57:02;2.20;;;1.10;;
80623;SDS011;70269;44.768;9.600;2024-03-23T04:59:27;2.42;;;1.10;;
80623;SDS011;70269;44.768;9.600;2024-03-23T05:01:53;3.85;;;1.08;;
80623;SDS011;70269;44.768;9.600;2024-03-23T05:04:18;3.78;;;1.20;;
80623;SDS011;70269;44.768;9.600;2024-03-23T05:06:44;2.67;;;1.02;;
80623;SDS011;70269;44.768;9.600;2024-03-23T05:09:10;2.67;;;1.00;;
80623;SDS011;70269;44.768;9.600;2024-03-23T05:11:37;3.63;;;1.13;;
80623;SDS011;70269;44.768;9.600;2024-03-23T05:14:03;2.88;;;1.08;;
80623;SDS011;70269;44.768;9.600;2024-03-23T05:16:29;2.72;;;1.05;;
80623;SDS011;70269;44.768;9.600;2024-03-23T05:18:55;2.63;;;1.13;;
80623;SDS011;70269;44.768;9.600;2024-03-23T05:21:20;3.38;;;1.00;;
80623;SDS011;70269;44.768;9.600;2024-03-23T05:23:46;2.13;;;0.82;;
80623;SDS011;70269;44.768;9.600;2024-03-23T05:26:13;2.38;;;0.90;;
80623;SDS011;70269;44.768;9.600;2024-03-23T05:28:39;2.50;;;0.70;;
80623;SDS011;70269;44.768;9.600;2024-03-23T05:31:05;3.03;;;1.30;;
80623;SDS011;70269;44.768;9.600;2024-03-23T05:33:30;1.45;;;0.60;;
80623;SDS011;70269;44.768;9.600;2024-03-23T05:35:56;1.60;;;0.70;;
80623;SDS011;70269;44.768;9.600;2024-03-23T05:38:23;2.55;;;0.82;;
80623;SDS011;70269;44.768;9.600;2024-03-23T05:40:55;2.10;;;0.88;;
80623;SDS011;70269;44.768;9.600;2024-03-23T05:43:22;1.42;;;0.60;;
80623;SDS011;70269;44.768;9.600;2024-03-23T05:45:57;1.70;;;0.57;;
80623;SDS011;70269;44.768;9.600;2024-03-23T05:48:25;1.60;;;0.73;;
80623;SDS011;70269;44.768;9.600;2024-03-23T05:50:51;3.55;;;1.13;;
80623;SDS011;70269;44.768;9.600;2024-03-23T05:53:18;1.67;;;0.55;;
80623;SDS011;70269;44.768;9.600;2024-03-23T05:55:48;2.17;;;0.80;;
80623;SDS011;70269;44.768;9.600;2024-03-23T05:58:17;3.15;;;1.10;;
80623;SDS011;70269;44.768;9.600;2024-03-23T06:00:44;4.88;;;1.08;;
80623;SDS011;70269;44.768;9.600;2024-03-23T06:03:10;2.28;;;0.98;;
80623;SDS011;70269;44.768;9.600;2024-03-23T06:05:36;3.05;;;0.98;;
80623;SDS011;70269;44.768;9.600;2024-03-23T06:08:02;3.30;;;1.40;;
80623;SDS011;70269;44.768;9.600;2024-03-23T06:10:28;3.08;;;1.27;;
80623;SDS011;70269;44.768;9.600;2024-03-23T06:12:54;2.08;;;0.77;;
80623;SDS011;70269;44.768;9.600;2024-03-23T06:15:20;3.92;;;1.20;;
80623;SDS011;70269;44.768;9.600;2024-03-23T06:17:47;3.47;;;1.17;;
80623;SDS011;70269;44.768;9.600;2024-03-23T06:20:13;4.55;;;1.10;;
80623;SDS011;70269;44.768;9.600;2024-03-23T06:22:39;2.25;;;0.90;;
80623;SDS011;70269;44.768;9.600;2024-03-23T06:25:05;1.65;;;0.60;;
80623;SDS011;70269;44.768;9.600;2024-03-23T06:27:31;2.75;;;0.88;;
80623;SDS011;70269;44.768;9.600;2024-03-23T06:29:58;1.63;;;0.68;;
80623;SDS011;70269;44.768;9.600;2024-03-23T06:32:24;3.35;;;1.05;;
80623;SDS011;70269;44.768;9.600;2024-03-23T06:34:50;2.92;;;1.50;;
80623;SDS011;70269;44.768;9.600;2024-03-23T06:37:15;3.65;;;1.02;;
80623;SDS011;70269;44.768;9.600;2024-03-23T06:39:41;2.67;;;1.10;;
80623;SDS011;70269;44.768;9.600;2024-03-23T06:42:07;3.22;;;1.27;;
80623;SDS011;70269;44.768;9.600;2024-03-23T06:44:33;3.55;;;1.27;;
80623;SDS011;70269;44.768;9.600;2024-03-23T06:46:59;7.13;;;2.00;;
80623;SDS011;70269;44.768;9.600;2024-03-23T06:49:25;4.40;;;1.33;;
80623;SDS011;70269;44.768;9.600;2024-03-23T06:51:50;2.53;;;1.30;;
80623;SDS011;70269;44.768;9.600;2024-03-23T06:54:16;4.68;;;1.60;;
80623;SDS011;70269;44.768;9.600;2024-03-23T06:56:44;1.45;;;0.73;;
80623;SDS011;70269;44.768;9.600;2024-03-23T06:59:09;4.25;;;1.75;;
80623;SDS011;70269;44.768;9.600;2024-03-23T07:01:35;5.32;;;1.88;;
80623;SDS011;70269;44.768;9.600;2024-03-23T07:04:01;4.13;;;1.73;;
80623;SDS011;70269;44.768;9.600;2024-03-23T07:06:26;3.92;;;1.55;;
80623;SDS011;70269;44.768;9.600;2024-03-23T07:08:52;3.03;;;1.50;;
80623;SDS011;70269;44.768;9.600;2024-03-23T07:11:21;5.05;;;1.50;;
80623;SDS011;70269;44.768;9.600;2024-03-23T07:13:51;4.63;;;1.48;;
80623;SDS011;70269;44.768;9.600;2024-03-23T07:16:19;3.58;;;1.30;;
80623;SDS011;70269;44.768;9.600;2024-03-23T07:18:45;2.20;;;1.20;;
80623;SDS011;70269;44.768;9.600;2024-03-23T07:21:11;4.40;;;1.80;;
80623;SDS011;70269;44.768;9.600;2024-03-23T07:23:37;3.60;;;1.40;;
80623;SDS011;70269;44.768;9.600;2024-03-23T07:26:03;3.70;;;1.50;;
80623;SDS011;70269;44.768;9.600;2024-03-23T07:28:30;3.80;;;1.13;;
80623;SDS011;70269;44.768;9.600;2024-03-23T07:31:08;3.63;;;1.70;;
80623;SDS011;70269;44.768;9.600;2024-03-23T07:33:35;2.70;;;1.33;;
80623;SDS011;70269;44.768;9.600;2024-03-23T07:36:01;2.55;;;0.93;;
80623;SDS011;70269;44.768;9.600;2024-03-23T07:38:27;2.60;;;1.25;;
80623;SDS011;70269;44.768;9.600;2024-03-23T07:43:49;1.50;;;0.70;;
80623;SDS011;70269;44.768;9.600;2024-03-23T07:46:15;3.03;;;1.13;;
80623;SDS011;70269;44.768;9.600;2024-03-23T07:48:41;3.67;;;1.40;;
80623;SDS011;70269;44.768;9.600;2024-03-23T07:53:43;3.80;;;1.40;;
80623;SDS011;70269;44.768;9.600;2024-03-23T07:58:36;1.92;;;1.10;;
80623;SDS011;70269;44.768;9.600;2024-03-23T08:01:11;3.33;;;1.58;;
80623;SDS011;70269;44.768;9.600;2024-03-23T08:03:40;2.13;;;1.00;;
80623;SDS011;70269;44.768;9.600;2024-03-23T08:06:09;4.30;;;1.23;;
80623;SDS011;70269;44.768;9.600;2024-03-23T08:08:38;2.75;;;1.23;;
80623;SDS011;70269;44.768;9.600;2024-03-23T08:11:05;3.75;;;1.48;;
80623;SDS011;70269;44.768;9.600;2024-03-23T08:13:31;3.53;;;1.10;;
80623;SDS011;70269;44.768;9.600;2024-03-23T08:16:00;3.65;;;1.85;;
80623;SDS011;70269;44.768;9.600;2024-03-23T08:18:27;3.25;;;1.27;;
80623;SDS011;70269;44.768;9.600;2024-03-23T08:21:00;6.90;;;1.80;;
80623;SDS011;70269;44.768;9.600;2024-03-23T08:23:31;3.35;;;1.20;;
80623;SDS011;70269;44.768;9.600;2024-03-23T08:26:11;3.28;;;1.15;;
80623;SDS011;70269;44.768;9.600;2024-03-23T08:28:41;3.85;;;1.52;;
80623;SDS011;70269;44.768;9.600;2024-03-23T08:31:07;3.20;;;1.13;;
80623;SDS011;70269;44.768;9.600;2024-03-23T08:33:34;4.70;;;1.40;;
80623;SDS011;70269;44.768;9.600;2024-03-23T08:36:04;3.42;;;1.20;;
80623;SDS011;70269;44.768;9.600;2024-03-23T08:38:30;3.00;;;1.52;;
80623;SDS011;70269;44.768;9.600;2024-03-23T08:40:58;3.00;;;1.15;;
80623;SDS011;70269;44.768;9.600;2024-03-23T08:43:25;2.83;;;1.25;;
80623;SDS011;70269;44.768;9.600;2024-03-23T08:45:51;2.70;;;0.98;;
80623;SDS011;70269;44.768;9.600;2024-03-23T08:48:18;3.15;;;1.17;;
80623;SDS011;70269;44.768;9.600;2024-03-23T08:50:46;5.18;;;1.65;;
80623;SDS011;70269;44.768;9.600;2024-03-23T08:53:12;2.22;;;1.13;;
80623;SDS011;70269;44.768;9.600;2024-03-23T08:55:38;3.25;;;1.45;;
80623;SDS011;70269;44.768;9.600;2024-03-23T08:58:03;5.15;;;1.20;;
80623;SDS011;70269;44.768;9.600;2024-03-23T09:00:29;3.35;;;1.60;;
80623;SDS011;70269;44.768;9.600;2024-03-23T09:02:55;2.55;;;1.10;;
80623;SDS011;70269;44.768;9.600;2024-03-23T09:05:22;3.78;;;1.40;;
80623;SDS011;70269;44.768;9.600;2024-03-23T09:07:49;4.65;;;2.08;;
80623;SDS011;70269;44.768;9.600;2024-03-23T09:10:15;2.90;;;1.20;;
80623;SDS011;70269;44.768;9.600;2024-03-23T09:12:41;2.60;;;1.10;;
80623;SDS011;70269;44.768;9.600;2024-03-23T09:15:07;3.92;;;1.70;;
80623;SDS011;70269;44.768;9.600;2024-03-23T09:17:32;3.38;;;1.88;;
80623;SDS011;70269;44.768;9.600;2024-03-23T09:19:58;3.13;;;1.63;;
80623;SDS011;70269;44.768;9.600;2024-03-23T09:22:24;4.85;;;1.70;;
80623;SDS011;70269;44.768;9.600;2024-03-23T09:24:49;3.25;;;1.25;;
80623;SDS011;70269;44.768;9.600;2024-03-23T09:27:15;3.22;;;1.42;;
80623;SDS011;70269;44.768;9.600;2024-03-23T09:29:40;6.93;;;1.55;;
80623;SDS011;70269;44.768;9.600;2024-03-23T09:32:06;3.47;;;1.35;;
80623;SDS011;70269;44.768;9.600;2024-03-23T09:34:32;4.78;;;1.70;;
80623;SDS011;70269;44.768;9.600;2024-03-23T09:36:59;4.60;;;1.42;;
80623;SDS011;70269;44.768;9.600;2024-03-23T09:39:24;4.68;;;1.42;;
80623;SDS011;70269;44.768;9.600;2024-03-23T09:41:50;3.42;;;1.25;;
80623;SDS011;70269;44.768;9.600;2024-03-23T09:44:16;4.13;;;1.60;;
80623;SDS011;70269;44.768;9.600;2024-03-23T09:46:41;2.03;;;1.05;;
80623;SDS011;70269;44.768;9.600;2024-03-23T09:49:07;6.30;;;1.42;;
80623;SDS011;70269;44.768;9.600;2024-03-23T09:51:37;4.28;;;1.60;;
80623;SDS011;70269;44.768;9.600;2024-03-23T09:54:02;4.25;;;1.40;;
80623;SDS011;70269;44.768;9.600;2024-03-23T09:56:28;3.50;;;1.45;;
80623;SDS011;70269;44.768;9.600;2024-03-23T09:59:01;4.78;;;1.65;;
80623;SDS011;70269;44.768;9.600;2024-03-23T10:01:29;5.50;;;1.50;;
80623;SDS011;70269;44.768;9.600;2024-03-23T10:03:55;4.10;;;1.70;;
80623;SDS011;70269;44.768;9.600;2024-03-23T10:06:21;3.00;;;1.50;;
80623;SDS011;70269;44.768;9.600;2024-03-23T10:08:47;4.00;;;1.67;;
80623;SDS011;70269;44.768;9.600;2024-03-23T10:11:14;3.42;;;1.20;;
80623;SDS011;70269;44.768;9.600;2024-03-23T10:13:41;3.88;;;1.50;;
80623;SDS011;70269;44.768;9.600;2024-03-23T10:16:09;3.00;;;1.60;;
80623;SDS011;70269;44.768;9.600;2024-03-23T10:18:39;3.13;;;1.42;;
80623;SDS011;70269;44.768;9.600;2024-03-23T10:23:31;2.85;;;1.17;;
80623;SDS011;70269;44.768;9.600;2024-03-23T10:26:19;3.88;;;1.50;;
80623;SDS011;70269;44.768;9.600;2024-03-23T10:28:53;3.72;;;1.50;;
80623;SDS011;70269;44.768;9.600;2024-03-23T10:31:20;5.10;;;1.48;;
80623;SDS011;70269;44.768;9.600;2024-03-23T10:33:47;3.55;;;1.30;;
80623;SDS011;70269;44.768;9.600;2024-03-23T10:36:14;3.65;;;1.60;;
80623;SDS011;70269;44.768;9.600;2024-03-23T10:38:40;3.55;;;1.38;;
80623;SDS011;70269;44.768;9.600;2024-03-23T10:41:10;4.78;;;1.50;;
80623;SDS011;70269;44.768;9.600;2024-03-23T10:43:36;4.68;;;1.50;;
80623;SDS011;70269;44.768;9.600;2024-03-23T10:46:03;3.97;;;1.33;;
80623;SDS011;70269;44.768;9.600;2024-03-23T10:48:29;2.45;;;1.15;;
80623;SDS011;70269;44.768;9.600;2024-03-23T10:50:56;6.10;;;1.60;;
80623;SDS011;70269;44.768;9.600;2024-03-23T10:53:24;20.70;;;2.40;;
80623;SDS011;70269;44.768;9.600;2024-03-23T10:55:51;3.58;;;1.50;;
80623;SDS011;70269;44.768;9.600;2024-03-23T10:58:19;5.70;;;1.50;;
80623;SDS011;70269;44.768;9.600;2024-03-23T11:00:50;2.20;;;1.15;;
80623;SDS011;70269;44.768;9.600;2024-03-23T11:06:04;3.65;;;1.30;;
80623;SDS011;70269;44.768;9.600;2024-03-23T11:08:37;5.35;;;1.48;;
80623;SDS011;70269;44.768;9.600;2024-03-23T11:11:14;4.15;;;1.58;;
80623;SDS011;70269;44.768;9.600;2024-03-23T11:13:42;4.68;;;1.35;;
80623;SDS011;70269;44.768;9.600;2024-03-23T11:16:14;2.75;;;1.38;;
80623;SDS011;70269;44.768;9.600;2024-03-23T11:18:40;7.38;;;1.63;;
80623;SDS011;70269;44.768;9.600;2024-03-23T11:21:07;3.55;;;1.73;;
80623;SDS011;70269;44.768;9.600;2024-03-23T11:23:33;4.63;;;1.70;;
80623;SDS011;70269;44.768;9.600;2024-03-23T11:25:59;3.92;;;1.65;;
80623;SDS011;70269;44.768;9.600;2024-03-23T11:28:24;3.55;;;1.75;;
80623;SDS011;70269;44.768;9.600;2024-03-23T11:30:50;4.90;;;1.55;;
80623;SDS011;70269;44.768;9.600;2024-03-23T11:33:16;4.55;;;1.70;;
80623;SDS011;70269;44.768;9.600;2024-03-23T11:35:41;5.45;;;1.95;;
80623;SDS011;70269;44.768;9.600;2024-03-23T11:40:38;4.75;;;1.42;;
80623;SDS011;70269;44.768;9.600;2024-03-23T11:43:05;2.63;;;1.45;;
80623;SDS011;70269;44.768;9.600;2024-03-23T11:45:36;4.90;;;1.30;;
80623;SDS011;70269;44.768;9.600;2024-03-23T11:48:09;4.85;;;1.40;;
80623;SDS011;70269;44.768;9.600;2024-03-23T11:50:39;3.92;;;1.25;;
80623;SDS011;70269;44.768;9.600;2024-03-23T11:55:39;3.83;;;1.48;;
80623;SDS011;70269;44.768;9.600;2024-03-23T11:58:07;4.32;;;1.30;;
80623;SDS011;70269;44.768;9.600;2024-03-23T12:00:33;3.08;;;1.33;;
80623;SDS011;70269;44.768;9.600;2024-03-23T12:03:00;3.97;;;1.10;;
80623;SDS011;70269;44.768;9.600;2024-03-23T12:05:30;2.60;;;1.10;;
80623;SDS011;70269;44.768;9.600;2024-03-23T12:08:15;3.38;;;1.50;;
80623;SDS011;70269;44.768;9.600;2024-03-23T12:10:44;2.58;;;1.23;;
80623;SDS011;70269;44.768;9.600;2024-03-23T12:13:11;2.42;;;1.00;;
80623;SDS011;70269;44.768;9.600;2024-03-23T12:15:36;5.47;;;1.27;;
80623;SDS011;70269;44.768;9.600;2024-03-23T12:18:08;4.47;;;1.00;;
80623;SDS011;70269;44.768;9.600;2024-03-23T12:20:35;3.80;;;1.15;;
80623;SDS011;70269;44.768;9.600;2024-03-23T12:23:10;1.48;;;0.70;;
80623;SDS011;70269;44.768;9.600;2024-03-23T12:25:39;4.10;;;0.75;;
80623;SDS011;70269;44.768;9.600;2024-03-23T12:28:05;3.10;;;1.10;;
80623;SDS011;70269;44.768;9.600;2024-03-23T12:30:34;2.85;;;0.95;;
80623;SDS011;70269;44.768;9.600;2024-03-23T12:33:00;3.95;;;0.77;;
80623;SDS011;70269;44.768;9.600;2024-03-23T12:35:26;3.58;;;1.00;;
80623;SDS011;70269;44.768;9.600;2024-03-23T12:37:52;2.33;;;0.90;;
80623;SDS011;70269;44.768;9.600;2024-03-23T12:40:18;3.88;;;0.93;;
80623;SDS011;70269;44.768;9.600;2024-03-23T12:42:43;1.38;;;0.55;;
80623;SDS011;70269;44.768;9.600;2024-03-23T12:45:09;5.35;;;0.70;;
80623;SDS011;70269;44.768;9.600;2024-03-23T12:47:34;1.38;;;0.60;;
80623;SDS011;70269;44.768;9.600;2024-03-23T12:50:00;2.13;;;0.50;;
80623;SDS011;70269;44.768;9.600;2024-03-23T12:52:26;3.53;;;0.80;;
80623;SDS011;70269;44.768;9.600;2024-03-23T12:54:55;1.27;;;0.70;;
80623;SDS011;70269;44.768;9.600;2024-03-23T12:57:25;5.90;;;0.93;;
80623;SDS011;70269;44.768;9.600;2024-03-23T12:59:54;4.75;;;0.95;;
80623;SDS011;70269;44.768;9.600;2024-03-23T13:02:20;2.55;;;0.93;;
80623;SDS011;70269;44.768;9.600;2024-03-23T13:04:49;1.23;;;0.40;;
80623;SDS011;70269;44.768;9.600;2024-03-23T13:07:15;2.45;;;0.65;;
80623;SDS011;70269;44.768;9.600;2024-03-23T13:09:42;2.97;;;1.00;;
80623;SDS011;70269;44.768;9.600;2024-03-23T13:12:07;10.32;;;1.10;;
80623;SDS011;70269;44.768;9.600;2024-03-23T13:14:34;1.98;;;0.77;;
80623;SDS011;70269;44.768;9.600;2024-03-23T13:16:59;0.70;;;0.40;;
80623;SDS011;70269;44.768;9.600;2024-03-23T13:19:25;5.53;;;1.08;;
80623;SDS011;70269;44.768;9.600;2024-03-23T13:21:55;6.13;;;1.13;;
80623;SDS011;70269;44.768;9.600;2024-03-23T13:24:27;1.92;;;0.77;;
80623;SDS011;70269;44.768;9.600;2024-03-23T13:26:54;1.65;;;0.85;;
80623;SDS011;70269;44.768;9.600;2024-03-23T13:29:20;3.15;;;1.42;;
80623;SDS011;70269;44.768;9.600;2024-03-23T13:31:47;1.70;;;0.93;;
80623;SDS011;70269;44.768;9.600;2024-03-23T13:34:13;2.42;;;0.98;;
80623;SDS011;70269;44.768;9.600;2024-03-23T13:36:43;1.63;;;0.60;;
80623;SDS011;70269;44.768;9.600;2024-03-23T13:39:09;2.30;;;0.80;;
80623;SDS011;70269;44.768;9.600;2024-03-23T13:41:38;3.97;;;0.95;;
80623;SDS011;70269;44.768;9.600;2024-03-23T13:44:07;3.88;;;0.90;;
80623;SDS011;70269;44.768;9.600;2024-03-23T13:46:36;1.92;;;0.77;;
80623;SDS011;70269;44.768;9.600;2024-03-23T13:49:02;1.45;;;0.90;;
80623;SDS011;70269;44.768;9.600;2024-03-23T13:51:28;1.20;;;0.52;;
80623;SDS011;70269;44.768;9.600;2024-03-23T13:53:54;3.58;;;1.02;;
80623;SDS011;70269;44.768;9.600;2024-03-23T13:56:26;4.57;;;0.55;;
80623;SDS011;70269;44.768;9.600;2024-03-23T13:58:57;0.60;;;0.38;;
80623;SDS011;70269;44.768;9.600;2024-03-23T14:01:23;2.97;;;1.10;;
80623;SDS011;70269;44.768;9.600;2024-03-23T14:03:49;4.25;;;0.98;;
80623;SDS011;70269;44.768;9.600;2024-03-23T14:06:15;2.50;;;0.70;;
80623;SDS011;70269;44.768;9.600;2024-03-23T14:08:41;2.53;;;1.00;;
80623;SDS011;70269;44.768;9.600;2024-03-23T14:11:07;8.40;;;1.10;;
80623;SDS011;70269;44.768;9.600;2024-03-23T14:13:36;2.05;;;1.00;;
80623;SDS011;70269;44.768;9.600;2024-03-23T14:16:03;4.90;;;1.35;;
80623;SDS011;70269;44.768;9.600;2024-03-23T14:18:29;1.92;;;0.80;;
80623;SDS011;70269;44.768;9.600;2024-03-23T14:20:59;3.72;;;1.00;;
80623;SDS011;70269;44.768;9.600;2024-03-23T14:23:26;2.15;;;0.80;;
80623;SDS011;70269;44.768;9.600;2024-03-23T14:25:54;2.20;;;0.90;;
80623;SDS011;70269;44.768;9.600;2024-03-23T14:28:21;2.22;;;0.77;;
80623;SDS011;70269;44.768;9.600;2024-03-23T14:30:50;1.35;;;0.50;;
80623;SDS011;70269;44.768;9.600;2024-03-23T14:33:16;1.95;;;0.82;;
80623;SDS011;70269;44.768;9.600;2024-03-23T14:35:43;2.72;;;0.88;;
80623;SDS011;70269;44.768;9.600;2024-03-23T14:38:17;2.60;;;0.70;;
80623;SDS011;70269;44.768;9.600;2024-03-23T14:40:43;2.70;;;1.02;;
80623;SDS011;70269;44.768;9.600;2024-03-23T14:43:09;1.23;;;0.50;;
80623;SDS011;70269;44.768;9.600;2024-03-23T14:45:35;2.55;;;0.82;;
80623;SDS011;70269;44.768;9.600;2024-03-23T14:48:00;2.92;;;1.40;;
80623;SDS011;70269;44.768;9.600;2024-03-23T14:50:26;3.78;;;1.20;;
80623;SDS011;70269;44.768;9.600;2024-03-23T14:52:51;2.38;;;0.65;;
80623;SDS011;70269;44.768;9.600;2024-03-23T14:55:17;1.80;;;0.75;;
80623;SDS011;70269;44.768;9.600;2024-03-23T14:57:44;1.80;;;0.75;;
80623;SDS011;70269;44.768;9.600;2024-03-23T15:00:10;3.70;;;1.17;;
80623;SDS011;70269;44.768;9.600;2024-03-23T15:02:37;1.90;;;0.82;;
80623;SDS011;70269;44.768;9.600;2024-03-23T15:05:03;2.55;;;1.13;;
80623;SDS011;70269;44.768;9.600;2024-03-23T15:07:32;4.32;;;1.00;;
80623;SDS011;70269;44.768;9.600;2024-03-23T15:09:58;3.58;;;1.33;;
80623;SDS011;70269;44.768;9.600;2024-03-23T15:12:24;3.20;;;1.27;;
80623;SDS011;70269;44.768;9.600;2024-03-23T15:14:49;5.32;;;1.45;;
80623;SDS011;70269;44.768;9.600;2024-03-23T15:17:15;5.07;;;1.60;;
80623;SDS011;70269;44.768;9.600;2024-03-23T15:19:41;3.38;;;0.95;;
80623;SDS011;70269;44.768;9.600;2024-03-23T15:22:08;3.00;;;0.70;;
80623;SDS011;70269;44.768;9.600;2024-03-23T15:24:36;2.25;;;0.80;;
80623;SDS011;70269;44.768;9.600;2024-03-23T15:27:05;4.88;;;0.90;;
80623;SDS011;70269;44.768;9.600;2024-03-23T15:29:32;3.25;;;1.15;;
80623;SDS011;70269;44.768;9.600;2024-03-23T15:31:58;2.80;;;1.00;;
80623;SDS011;70269;44.768;9.600;2024-03-23T15:34:24;2.88;;;0.88;;
80623;SDS011;70269;44.768;9.600;2024-03-23T15:36:49;3.92;;;1.02;;
80623;SDS011;70269;44.768;9.600;2024-03-23T15:39:16;2.28;;;0.80;;
80623;SDS011;70269;44.768;9.600;2024-03-23T15:41:44;3.65;;;0.90;;
80623;SDS011;70269;44.768;9.600;2024-03-23T15:44:11;3.50;;;0.93;;
80623;SDS011;70269;44.768;9.600;2024-03-23T15:46:37;7.00;;;1.67;;
80623;SDS011;70269;44.768;9.600;2024-03-23T15:49:02;5.43;;;1.20;;
80623;SDS011;70269;44.768;9.600;2024-03-23T15:51:28;5.00;;;1.05;;
80623;SDS011;70269;44.768;9.600;2024-03-23T15:53:58;2.65;;;0.80;;
80623;SDS011;70269;44.768;9.600;2024-03-23T15:56:24;2.17;;;0.90;;
80623;SDS011;70269;44.768;9.600;2024-03-23T15:58:50;3.70;;;1.13;;
80623;SDS011;70269;44.768;9.600;2024-03-23T16:01:15;3.17;;;0.80;;